Wednesday, October 17, 2018, 5:00 PM GMT
Back to Local

CYZX, Greenwood, N. S.

Location: , , Canada Lat: 44.983
Local Time: 5:00 PM GMT (17:00 GMT) Lon: -64.917
Time Zone: GMT Elev: 91 ft

Show me the last for .
Show Decoded

2018-10-17 16:00 METAR CYZX 171600Z 18007KT 15SM SCT060 OVC120 10/M01 A2981 RMK SC4AC4 SLP096 =
2018-10-17 15:00 METAR CYZX 171500Z 21010KT 15SM OVC120 10/01 A2983 RMK AC8 SLP102 =
2018-10-17 14:00 METAR CYZX 171400Z 03002KT 15SM OVC130 07/02 A2986 RMK AC8 SLP111 =
2018-10-17 13:00 METAR CYZX 171300Z 00000KT 15SM FEW020 BKN170 05/01 A2989 RMK SC1AC6 SLP124 =
2018-10-17 12:00 METAR CYZX 171200Z 00000KT 15SM FEW020 BKN140 02/01 A2992 RMK SC1AC6 SLP133 =
2018-10-17 11:00 METAR CYZX 171100Z 35002KT 15SM FEW150 SCT210 00/M01 A2991 RMK AC2CI2 SLP131 =
2018-10-17 10:00 METAR CYZX 171000Z 29002KT 15SM SCT210 01/M01 A2992 RMK CC3 SLP133 =
2018-10-17 09:00 METAR CYZX 170900Z 14002KT 15SM SKC 02/M00 A2992 RMK SLP131 =
2018-10-17 08:00 METAR CYZX 170800Z 27002KT 15SM SKC 04/M00 A2992 RMK SLP131 =
2018-10-17 07:00 METAR CYZX 170700Z 27003KT 15SM SKC 06/M01 A2992 RMK SLP133 =
2018-10-17 06:00 METAR CYZX 170600Z 29010G20KT 15SM FEW180 06/M01 A2993 RMK AC2 SLP135 =
2018-10-17 05:00 METAR CYZX 170500Z 28015KT 15SM SCT045 07/M01 A2992 RMK SC3 SLP131 =
2018-10-17 04:00 METAR CYZX 170400Z 29008G15KT 15SM FEW045 07/M00 A2990 RMK SC2 SLP127 =
2018-10-17 03:00 METAR CYZX 170300Z 29012G21KT 15SM SKC 07/M00 A2989 RMK SLP124 =
2018-10-17 02:00 METAR CYZX 170200Z 30009G15KT 15SM SKC 08/00 A2989 RMK SLP123 =
2018-10-17 01:00 METAR CYZX 170100Z 29013G29KT 15SM FEW045 08/00 A2986 RMK SC1 SLP114 =
2018-10-17 00:00 METAR CYZX 170000Z 27011G16KT 15SM FEW045 09/01 A2984 RMK SC2 SLP106 =
2018-10-16 23:00 METAR CYZX 162300Z 27015G20KT 15SM FEW045 10/01 A2981 RMK SC2 SLP097 =
2018-10-16 22:00 METAR CYZX 162200Z 26016G22KT 15SM FEW040 10/02 A2979 RMK SC1 SLP088 =
2018-10-16 21:00 METAR CYZX 162100Z 26021G32KT 15SM FEW040 11/02 A2976 RMK SC1 SLP078 =
2018-10-16 20:00 METAR CYZX 162000Z 29019G33KT 15SM FEW040 11/02 A2973 RMK SC1 SLP069 =
2018-10-16 19:00 METAR CYZX 161900Z 27024G33KT 15SM FEW040 11/03 A2972 RMK SC2 SLP066 =
2018-10-16 18:00 METAR CYZX 161800Z 26022G38KT 15SM SCT040 11/03 A2971 RMK SC3 SLP063 =

Support USWX by starting your Amazon purchase here.